sensor_id;sensor_type;location;lat;lon;timestamp;temperature;humidity
34698;DHT22;61391;50.922;6.928;2023-03-01T00:02:05;2.70;99.90
34698;DHT22;61391;50.922;6.928;2023-03-01T00:04:31;2.80;99.90
34698;DHT22;61391;50.922;6.928;2023-03-01T00:06:57;2.80;99.90
34698;DHT22;61391;50.922;6.928;2023-03-01T00:09:22;3.20;99.90
34698;DHT22;61391;50.922;6.928;2023-03-01T00:11:48;3.30;99.90
34698;DHT22;61391;50.922;6.928;2023-03-01T00:17:35;3.40;99.90
34698;DHT22;61391;50.922;6.928;2023-03-01T00:20:01;3.60;99.90
34698;DHT22;61391;50.922;6.928;2023-03-01T00:22:27;3.40;99.90
34698;DHT22;61391;50.922;6.928;2023-03-01T00:24:53;3.10;99.90
34698;DHT22;61391;50.922;6.928;2023-03-01T00:27:19;2.90;99.90
34698;DHT22;61391;50.922;6.928;2023-03-01T00:29:45;3.10;99.90
34698;DHT22;61391;50.922;6.928;2023-03-01T00:32:10;3.50;99.90
34698;DHT22;61391;50.922;6.928;2023-03-01T00:34:36;3.40;99.90
34698;DHT22;61391;50.922;6.928;2023-03-01T00:37:01;3.50;99.90
34698;DHT22;61391;50.922;6.928;2023-03-01T00:39:30;3.60;99.90
34698;DHT22;61391;50.922;6.928;2023-03-01T00:45:18;3.60;99.90
34698;DHT22;61391;50.922;6.928;2023-03-01T00:47:44;3.40;99.90
34698;DHT22;61391;50.922;6.928;2023-03-01T00:50:10;3.30;99.90
34698;DHT22;61391;50.922;6.928;2023-03-01T00:52:36;3.10;99.90
34698;DHT22;61391;50.922;6.928;2023-03-01T00:55:02;3.00;99.90
34698;DHT22;61391;50.922;6.928;2023-03-01T00:57:27;2.80;99.90
34698;DHT22;61391;50.922;6.928;2023-03-01T01:03:14;3.10;99.90
34698;DHT22;61391;50.922;6.928;2023-03-01T01:05:40;3.10;99.90
34698;DHT22;61391;50.922;6.928;2023-03-01T01:08:05;3.00;99.90
34698;DHT22;61391;50.922;6.928;2023-03-01T01:10:34;2.90;99.90
34698;DHT22;61391;50.922;6.928;2023-03-01T01:12:59;2.70;99.90
34698;DHT22;61391;50.922;6.928;2023-03-01T01:18:47;2.40;99.90
34698;DHT22;61391;50.922;6.928;2023-03-01T01:21:15;2.60;99.90
34698;DHT22;61391;50.922;6.928;2023-03-01T01:23:42;2.80;99.90
34698;DHT22;61391;50.922;6.928;2023-03-01T01:26:11;2.80;99.90
34698;DHT22;61391;50.922;6.928;2023-03-01T01:28:37;2.90;99.90
34698;DHT22;61391;50.922;6.928;2023-03-01T01:31:03;2.70;99.90
34698;DHT22;61391;50.922;6.928;2023-03-01T01:33:29;2.50;99.90
34698;DHT22;61391;50.922;6.928;2023-03-01T01:35:55;2.70;99.90
34698;DHT22;61391;50.922;6.928;2023-03-01T01:38:20;3.10;99.90
34698;DHT22;61391;50.922;6.928;2023-03-01T01:40:47;2.90;99.90
34698;DHT22;61391;50.922;6.928;2023-03-01T01:43:24;2.80;99.90
34698;DHT22;61391;50.922;6.928;2023-03-01T01:45:50;2.60;99.90
34698;DHT22;61391;50.922;6.928;2023-03-01T01:48:20;2.40;99.90
34698;DHT22;61391;50.922;6.928;2023-03-01T01:50:53;2.40;99.90
34698;DHT22;61391;50.922;6.928;2023-03-01T01:53:21;2.50;99.90
34698;DHT22;61391;50.922;6.928;2023-03-01T01:55:51;2.70;99.90
34698;DHT22;61391;50.922;6.928;2023-03-01T01:58:19;2.50;99.90
34698;DHT22;61391;50.922;6.928;2023-03-01T02:00:45;2.60;99.90
34698;DHT22;61391;50.922;6.928;2023-03-01T02:03:17;2.40;99.90
34698;DHT22;61391;50.922;6.928;2023-03-01T02:05:58;2.20;99.90
34698;DHT22;61391;50.922;6.928;2023-03-01T02:08:28;2.10;99.90
34698;DHT22;61391;50.922;6.928;2023-03-01T02:10:56;2.20;99.90
34698;DHT22;61391;50.922;6.928;2023-03-01T02:13:22;2.10;99.90
34698;DHT22;61391;50.922;6.928;2023-03-01T02:15:48;2.00;99.90
34698;DHT22;61391;50.922;6.928;2023-03-01T02:18:17;2.00;99.90
34698;DHT22;61391;50.922;6.928;2023-03-01T02:23:24;2.10;99.90
34698;DHT22;61391;50.922;6.928;2023-03-01T02:26:07;2.00;99.90
34698;DHT22;61391;50.922;6.928;2023-03-01T02:28:35;2.00;99.90
34698;DHT22;61391;50.922;6.928;2023-03-01T02:31:04;2.00;99.90
34698;DHT22;61391;50.922;6.928;2023-03-01T02:33:49;2.00;99.90
34698;DHT22;61391;50.922;6.928;2023-03-01T02:36:19;2.10;99.90
34698;DHT22;61391;50.922;6.928;2023-03-01T02:38:47;2.00;99.90
34698;DHT22;61391;50.922;6.928;2023-03-01T02:44:28;1.90;99.90
34698;DHT22;61391;50.922;6.928;2023-03-01T02:46:56;2.00;99.90
34698;DHT22;61391;50.922;6.928;2023-03-01T02:49:29;1.90;99.90
34698;DHT22;61391;50.922;6.928;2023-03-01T02:54:50;1.90;99.90
34698;DHT22;61391;50.922;6.928;2023-03-01T02:57:18;1.90;99.90
34698;DHT22;61391;50.922;6.928;2023-03-01T02:59:44;1.70;99.90
34698;DHT22;61391;50.922;6.928;2023-03-01T03:02:24;1.70;99.90
34698;DHT22;61391;50.922;6.928;2023-03-01T03:05:15;1.60;99.90
34698;DHT22;61391;50.922;6.928;2023-03-01T03:07:43;1.60;99.90
34698;DHT22;61391;50.922;6.928;2023-03-01T03:10:12;1.80;99.90
34698;DHT22;61391;50.922;6.928;2023-03-01T03:12:39;2.00;99.90
34698;DHT22;61391;50.922;6.928;2023-03-01T03:18:26;2.40;99.90
34698;DHT22;61391;50.922;6.928;2023-03-01T03:20:52;2.30;99.90
34698;DHT22;61391;50.922;6.928;2023-03-01T03:23:20;2.50;99.90
34698;DHT22;61391;50.922;6.928;2023-03-01T03:25:50;2.60;99.90
34698;DHT22;61391;50.922;6.928;2023-03-01T03:28:16;2.50;99.90
34698;DHT22;61391;50.922;6.928;2023-03-01T03:30:43;2.40;99.90
34698;DHT22;61391;50.922;6.928;2023-03-01T03:33:12;2.50;99.90
34698;DHT22;61391;50.922;6.928;2023-03-01T03:35:43;2.20;99.90
34698;DHT22;61391;50.922;6.928;2023-03-01T03:38:11;2.30;99.90
34698;DHT22;61391;50.922;6.928;2023-03-01T03:40:45;2.40;99.90
34698;DHT22;61391;50.922;6.928;2023-03-01T03:43:17;2.40;99.90
34698;DHT22;61391;50.922;6.928;2023-03-01T03:45:47;2.40;99.90
34698;DHT22;61391;50.922;6.928;2023-03-01T03:48:13;2.30;99.90
34698;DHT22;61391;50.922;6.928;2023-03-01T03:50:40;2.30;99.90
34698;DHT22;61391;50.922;6.928;2023-03-01T03:53:19;2.20;99.90
34698;DHT22;61391;50.922;6.928;2023-03-01T03:55:45;2.30;99.90
34698;DHT22;61391;50.922;6.928;2023-03-01T03:58:10;2.30;99.90
34698;DHT22;61391;50.922;6.928;2023-03-01T04:00:53;2.30;99.90
34698;DHT22;61391;50.922;6.928;2023-03-01T04:03:21;2.10;99.90
34698;DHT22;61391;50.922;6.928;2023-03-01T04:05:48;2.20;99.90
34698;DHT22;61391;50.922;6.928;2023-03-01T04:08:16;2.20;99.90
34698;DHT22;61391;50.922;6.928;2023-03-01T04:10:44;2.20;99.90
34698;DHT22;61391;50.922;6.928;2023-03-01T04:13:19;2.20;99.90
34698;DHT22;61391;50.922;6.928;2023-03-01T04:15:46;2.20;99.90
34698;DHT22;61391;50.922;6.928;2023-03-01T04:18:13;2.20;99.90
34698;DHT22;61391;50.922;6.928;2023-03-01T04:20:39;2.20;99.90
34698;DHT22;61391;50.922;6.928;2023-03-01T04:23:08;2.30;99.90
34698;DHT22;61391;50.922;6.928;2023-03-01T04:25:55;2.00;99.90
34698;DHT22;61391;50.922;6.928;2023-03-01T04:31:43;2.00;99.90
34698;DHT22;61391;50.922;6.928;2023-03-01T04:34:08;2.00;99.90
34698;DHT22;61391;50.922;6.928;2023-03-01T04:36:34;2.00;99.90
34698;DHT22;61391;50.922;6.928;2023-03-01T04:39:00;1.70;99.90
34698;DHT22;61391;50.922;6.928;2023-03-01T04:41:37;1.80;99.90
34698;DHT22;61391;50.922;6.928;2023-03-01T04:44:08;2.00;99.90
34698;DHT22;61391;50.922;6.928;2023-03-01T04:46:35;1.90;99.90
34698;DHT22;61391;50.922;6.928;2023-03-01T04:49:01;1.80;99.90
34698;DHT22;61391;50.922;6.928;2023-03-01T04:51:26;1.90;99.90
34698;DHT22;61391;50.922;6.928;2023-03-01T04:53:52;1.90;99.90
34698;DHT22;61391;50.922;6.928;2023-03-01T04:56:18;1.80;99.90
34698;DHT22;61391;50.922;6.928;2023-03-01T04:58:44;1.80;99.90
34698;DHT22;61391;50.922;6.928;2023-03-01T05:01:15;1.70;99.90
34698;DHT22;61391;50.922;6.928;2023-03-01T05:03:46;1.70;99.90
34698;DHT22;61391;50.922;6.928;2023-03-01T05:06:12;1.80;99.90
34698;DHT22;61391;50.922;6.928;2023-03-01T05:08:39;1.60;99.90
34698;DHT22;61391;50.922;6.928;2023-03-01T05:11:05;1.60;99.90
34698;DHT22;61391;50.922;6.928;2023-03-01T05:13:31;1.60;99.90
34698;DHT22;61391;50.922;6.928;2023-03-01T05:15:59;1.60;99.90
34698;DHT22;61391;50.922;6.928;2023-03-01T05:18:26;1.50;99.90
34698;DHT22;61391;50.922;6.928;2023-03-01T05:21:05;1.50;99.90
34698;DHT22;61391;50.922;6.928;2023-03-01T05:23:32;1.60;99.90
34698;DHT22;61391;50.922;6.928;2023-03-01T05:25:59;1.60;99.90
34698;DHT22;61391;50.922;6.928;2023-03-01T05:28:26;1.40;99.90
34698;DHT22;61391;50.922;6.928;2023-03-01T05:30:52;1.20;99.90
34698;DHT22;61391;50.922;6.928;2023-03-01T05:33:18;1.30;99.90
34698;DHT22;61391;50.922;6.928;2023-03-01T05:39:06;1.50;99.90
34698;DHT22;61391;50.922;6.928;2023-03-01T05:41:31;1.60;99.90
34698;DHT22;61391;50.922;6.928;2023-03-01T05:43:57;1.60;99.90
34698;DHT22;61391;50.922;6.928;2023-03-01T05:46:22;1.50;99.90
34698;DHT22;61391;50.922;6.928;2023-03-01T05:48:49;1.20;99.90
34698;DHT22;61391;50.922;6.928;2023-03-01T05:51:15;1.20;99.90
34698;DHT22;61391;50.922;6.928;2023-03-01T05:53:40;1.40;99.90
34698;DHT22;61391;50.922;6.928;2023-03-01T05:56:07;1.50;99.90
34698;DHT22;61391;50.922;6.928;2023-03-01T06:01:54;1.60;99.90
34698;DHT22;61391;50.922;6.928;2023-03-01T06:04:20;1.70;99.90
34698;DHT22;61391;50.922;6.928;2023-03-01T06:06:46;1.50;99.90
34698;DHT22;61391;50.922;6.928;2023-03-01T06:09:11;1.10;99.90
34698;DHT22;61391;50.922;6.928;2023-03-01T06:11:37;0.90;99.90
34698;DHT22;61391;50.922;6.928;2023-03-01T06:14:03;0.80;99.90
34698;DHT22;61391;50.922;6.928;2023-03-01T06:16:29;0.80;99.90
34698;DHT22;61391;50.922;6.928;2023-03-01T06:18:55;0.80;99.90
34698;DHT22;61391;50.922;6.928;2023-03-01T06:21:20;0.70;99.90
34698;DHT22;61391;50.922;6.928;2023-03-01T06:23:49;0.70;99.90
34698;DHT22;61391;50.922;6.928;2023-03-01T06:26:15;0.90;99.90
34698;DHT22;61391;50.922;6.928;2023-03-01T06:28:40;0.90;99.90
34698;DHT22;61391;50.922;6.928;2023-03-01T06:31:06;0.80;99.90
34698;DHT22;61391;50.922;6.928;2023-03-01T06:33:34;0.70;99.90
34698;DHT22;61391;50.922;6.928;2023-03-01T06:39:21;1.00;99.90
34698;DHT22;61391;50.922;6.928;2023-03-01T06:41:47;1.30;99.90
34698;DHT22;61391;50.922;6.928;2023-03-01T06:44:12;1.20;99.90
34698;DHT22;61391;50.922;6.928;2023-03-01T06:50:02;1.00;99.90
34698;DHT22;61391;50.922;6.928;2023-03-01T06:52:28;1.00;99.90
34698;DHT22;61391;50.922;6.928;2023-03-01T06:54:54;0.90;99.90
34698;DHT22;61391;50.922;6.928;2023-03-01T06:57:21;0.90;99.90
34698;DHT22;61391;50.922;6.928;2023-03-01T06:59:49;1.00;99.90
34698;DHT22;61391;50.922;6.928;2023-03-01T07:05:41;1.30;99.90
34698;DHT22;61391;50.922;6.928;2023-03-01T07:08:08;1.30;99.90
34698;DHT22;61391;50.922;6.928;2023-03-01T07:10:35;1.30;99.90
34698;DHT22;61391;50.922;6.928;2023-03-01T07:13:11;1.40;99.90
34698;DHT22;61391;50.922;6.928;2023-03-01T07:19:00;1.50;99.90
34698;DHT22;61391;50.922;6.928;2023-03-01T07:21:26;1.90;99.90
34698;DHT22;61391;50.922;6.928;2023-03-01T07:27:14;3.30;99.90
34698;DHT22;61391;50.922;6.928;2023-03-01T07:29:40;4.70;99.90
34698;DHT22;61391;50.922;6.928;2023-03-01T07:32:07;5.80;99.90
34698;DHT22;61391;50.922;6.928;2023-03-01T07:34:34;5.30;99.90
34698;DHT22;61391;50.922;6.928;2023-03-01T07:37:01;5.40;99.90
34698;DHT22;61391;50.922;6.928;2023-03-01T07:39:27;6.40;99.90
34698;DHT22;61391;50.922;6.928;2023-03-01T07:41:52;6.00;99.90
34698;DHT22;61391;50.922;6.928;2023-03-01T07:44:18;6.90;99.90
34698;DHT22;61391;50.922;6.928;2023-03-01T07:46:44;8.10;99.90
34698;DHT22;61391;50.922;6.928;2023-03-01T07:49:09;9.10;99.90
34698;DHT22;61391;50.922;6.928;2023-03-01T07:51:35;8.70;99.90
34698;DHT22;61391;50.922;6.928;2023-03-01T07:54:01;9.00;99.90
34698;DHT22;61391;50.922;6.928;2023-03-01T07:56:26;8.50;99.90
34698;DHT22;61391;50.922;6.928;2023-03-01T07:58:52;7.80;99.90
34698;DHT22;61391;50.922;6.928;2023-03-01T08:01:20;7.90;99.90
34698;DHT22;61391;50.922;6.928;2023-03-01T08:03:46;8.40;99.90
34698;DHT22;61391;50.922;6.928;2023-03-01T08:06:14;8.90;99.90
34698;DHT22;61391;50.922;6.928;2023-03-01T08:08:40;8.90;99.90
34698;DHT22;61391;50.922;6.928;2023-03-01T08:11:07;8.70;99.90
34698;DHT22;61391;50.922;6.928;2023-03-01T08:13:33;8.60;99.90
34698;DHT22;61391;50.922;6.928;2023-03-01T08:16:08;9.30;99.80
34698;DHT22;61391;50.922;6.928;2023-03-01T08:18:35;9.80;98.00
34698;DHT22;61391;50.922;6.928;2023-03-01T08:21:09;10.10;98.70
34698;DHT22;61391;50.922;6.928;2023-03-01T08:23:35;10.20;98.10
34698;DHT22;61391;50.922;6.928;2023-03-01T08:28:33;9.80;99.10
34698;DHT22;61391;50.922;6.928;2023-03-01T08:30:59;10.00;97.90
34698;DHT22;61391;50.922;6.928;2023-03-01T08:33:25;10.20;97.20
34698;DHT22;61391;50.922;6.928;2023-03-01T08:35:50;9.30;99.90
34698;DHT22;61391;50.922;6.928;2023-03-01T08:38:16;9.80;98.60
34698;DHT22;61391;50.922;6.928;2023-03-01T08:40:41;10.00;99.10
34698;DHT22;61391;50.922;6.928;2023-03-01T08:43:07;10.60;96.30
34698;DHT22;61391;50.922;6.928;2023-03-01T08:45:32;11.10;95.20
34698;DHT22;61391;50.922;6.928;2023-03-01T08:47:58;9.80;96.60
34698;DHT22;61391;50.922;6.928;2023-03-01T08:50:24;10.00;96.70
34698;DHT22;61391;50.922;6.928;2023-03-01T08:52:50;9.40;98.30
34698;DHT22;61391;50.922;6.928;2023-03-01T08:55:16;8.80;99.50
34698;DHT22;61391;50.922;6.928;2023-03-01T08:57:43;9.50;99.90
34698;DHT22;61391;50.922;6.928;2023-03-01T09:00:09;10.20;96.20
34698;DHT22;61391;50.922;6.928;2023-03-01T09:02:36;10.60;95.60
34698;DHT22;61391;50.922;6.928;2023-03-01T09:05:02;11.80;93.20
34698;DHT22;61391;50.922;6.928;2023-03-01T09:07:28;11.50;92.60
34698;DHT22;61391;50.922;6.928;2023-03-01T09:09:54;10.90;93.40
34698;DHT22;61391;50.922;6.928;2023-03-01T09:12:20;10.20;94.60
34698;DHT22;61391;50.922;6.928;2023-03-01T09:14:56;10.70;95.20
34698;DHT22;61391;50.922;6.928;2023-03-01T09:17:22;10.90;92.80
34698;DHT22;61391;50.922;6.928;2023-03-01T09:19:47;9.90;96.40
34698;DHT22;61391;50.922;6.928;2023-03-01T09:22:13;9.60;97.50
34698;DHT22;61391;50.922;6.928;2023-03-01T09:24:39;9.40;97.10
34698;DHT22;61391;50.922;6.928;2023-03-01T09:27:06;10.10;96.80
34698;DHT22;61391;50.922;6.928;2023-03-01T09:29:38;9.80;96.20
34698;DHT22;61391;50.922;6.928;2023-03-01T09:32:05;9.10;95.70
34698;DHT22;61391;50.922;6.928;2023-03-01T09:34:31;9.50;96.80
34698;DHT22;61391;50.922;6.928;2023-03-01T09:36:57;9.40;95.80
34698;DHT22;61391;50.922;6.928;2023-03-01T09:39:23;10.40;95.50
34698;DHT22;61391;50.922;6.928;2023-03-01T09:42:15;10.20;94.30
34698;DHT22;61391;50.922;6.928;2023-03-01T09:44:59;10.70;93.10
34698;DHT22;61391;50.922;6.928;2023-03-01T09:47:36;12.00;96.20
34698;DHT22;61391;50.922;6.928;2023-03-01T09:53:31;10.90;91.60
34698;DHT22;61391;50.922;6.928;2023-03-01T09:59:02;10.60;94.40
34698;DHT22;61391;50.922;6.928;2023-03-01T10:01:34;11.30;92.20
34698;DHT22;61391;50.922;6.928;2023-03-01T10:04:28;11.00;91.90
34698;DHT22;61391;50.922;6.928;2023-03-01T10:09:41;11.30;93.70
34698;DHT22;61391;50.922;6.928;2023-03-01T10:12:16;11.20;94.20
34698;DHT22;61391;50.922;6.928;2023-03-01T10:15:11;11.30;92.30
34698;DHT22;61391;50.922;6.928;2023-03-01T10:17:55;11.60;92.50
34698;DHT22;61391;50.922;6.928;2023-03-01T10:21:07;12.20;96.70
34698;DHT22;61391;50.922;6.928;2023-03-01T10:23:12;12.40;90.30
34698;DHT22;61391;50.922;6.928;2023-03-01T10:28:29;10.10;90.40
34698;DHT22;61391;50.922;6.928;2023-03-01T10:30:58;9.60;93.10
34698;DHT22;61391;50.922;6.928;2023-03-01T10:33:27;10.40;92.60
34698;DHT22;61391;50.922;6.928;2023-03-01T10:35:54;10.90;92.80
34698;DHT22;61391;50.922;6.928;2023-03-01T10:38:20;10.50;91.00
34698;DHT22;61391;50.922;6.928;2023-03-01T10:40:58;9.80;94.10
34698;DHT22;61391;50.922;6.928;2023-03-01T10:43:26;10.50;93.50
34698;DHT22;61391;50.922;6.928;2023-03-01T10:45:52;10.10;92.40
34698;DHT22;61391;50.922;6.928;2023-03-01T10:48:24;10.80;92.30
34698;DHT22;61391;50.922;6.928;2023-03-01T10:53:42;12.00;91.20
34698;DHT22;61391;50.922;6.928;2023-03-01T10:58:38;12.70;88.40
34698;DHT22;61391;50.922;6.928;2023-03-01T11:03:40;12.80;88.90
34698;DHT22;61391;50.922;6.928;2023-03-01T11:08:44;13.40;84.40
34698;DHT22;61391;50.922;6.928;2023-03-01T11:11:21;12.40;83.70
34698;DHT22;61391;50.922;6.928;2023-03-01T11:13:58;12.20;86.90
34698;DHT22;61391;50.922;6.928;2023-03-01T11:19:15;11.80;86.80
34698;DHT22;61391;50.922;6.928;2023-03-01T11:24:11;10.70;88.60
34698;DHT22;61391;50.922;6.928;2023-03-01T11:26:41;10.50;89.40
34698;DHT22;61391;50.922;6.928;2023-03-01T11:29:59;10.40;88.80
34698;DHT22;61391;50.922;6.928;2023-03-01T11:32:08;10.00;93.90
34698;DHT22;61391;50.922;6.928;2023-03-01T11:34:46;9.50;97.10
34698;DHT22;61391;50.922;6.928;2023-03-01T11:37:26;9.80;93.20
34698;DHT22;61391;50.922;6.928;2023-03-01T11:42:50;10.30;93.50
34698;DHT22;61391;50.922;6.928;2023-03-01T11:45:17;9.40;94.10
34698;DHT22;61391;50.922;6.928;2023-03-01T11:50:41;9.10;94.90
34698;DHT22;61391;50.922;6.928;2023-03-01T11:53:47;9.20;95.20
34698;DHT22;61391;50.922;6.928;2023-03-01T11:56:27;9.20;95.30
34698;DHT22;61391;50.922;6.928;2023-03-01T12:07:41;7.80;99.60
34698;DHT22;61391;50.922;6.928;2023-03-01T12:12:48;8.50;99.90
34698;DHT22;61391;50.922;6.928;2023-03-01T12:15:30;8.50;98.50
34698;DHT22;61391;50.922;6.928;2023-03-01T12:26:10;8.30;99.90
34698;DHT22;61391;50.922;6.928;2023-03-01T12:28:56;8.80;96.80
34698;DHT22;61391;50.922;6.928;2023-03-01T12:41:26;9.60;94.30
34698;DHT22;61391;50.922;6.928;2023-03-01T12:49:28;10.10;99.90
34698;DHT22;61391;50.922;6.928;2023-03-01T12:53:00;10.40;94.00
34698;DHT22;61391;50.922;6.928;2023-03-01T12:55:06;9.50;95.30
34698;DHT22;61391;50.922;6.928;2023-03-01T12:57:40;9.50;94.20
34698;DHT22;61391;50.922;6.928;2023-03-01T13:00:28;9.30;94.20
34698;DHT22;61391;50.922;6.928;2023-03-01T13:06:10;9.60;94.20
34698;DHT22;61391;50.922;6.928;2023-03-01T13:08:49;8.80;96.20
34698;DHT22;61391;50.922;6.928;2023-03-01T13:11:21;8.70;96.20
34698;DHT22;61391;50.922;6.928;2023-03-01T13:13:48;9.10;97.60
34698;DHT22;61391;50.922;6.928;2023-03-01T13:16:40;9.30;95.40
34698;DHT22;61391;50.922;6.928;2023-03-01T13:19:10;9.60;96.90
34698;DHT22;61391;50.922;6.928;2023-03-01T13:21:37;9.80;96.40
34698;DHT22;61391;50.922;6.928;2023-03-01T13:24:03;9.70;94.70
34698;DHT22;61391;50.922;6.928;2023-03-01T13:26:29;10.10;93.60
34698;DHT22;61391;50.922;6.928;2023-03-01T13:28:56;10.40;96.10
34698;DHT22;61391;50.922;6.928;2023-03-01T13:33:52;10.50;92.30
34698;DHT22;61391;50.922;6.928;2023-03-01T13:39:00;10.70;91.70
34698;DHT22;61391;50.922;6.928;2023-03-01T13:46:48;10.70;91.90
34698;DHT22;61391;50.922;6.928;2023-03-01T13:49:19;10.80;91.00
34698;DHT22;61391;50.922;6.928;2023-03-01T13:51:47;10.60;91.10
34698;DHT22;61391;50.922;6.928;2023-03-01T13:54:15;10.80;91.40
34698;DHT22;61391;50.922;6.928;2023-03-01T13:56:43;10.80;91.50
34698;DHT22;61391;50.922;6.928;2023-03-01T13:59:34;10.60;93.00
34698;DHT22;61391;50.922;6.928;2023-03-01T14:06:02;10.90;94.10
34698;DHT22;61391;50.922;6.928;2023-03-01T14:16:33;9.70;93.30
34698;DHT22;61391;50.922;6.928;2023-03-01T14:19:12;9.20;94.40
34698;DHT22;61391;50.922;6.928;2023-03-01T14:21:39;9.10;93.60
34698;DHT22;61391;50.922;6.928;2023-03-01T14:24:20;9.40;93.20
34698;DHT22;61391;50.922;6.928;2023-03-01T14:26:46;9.80;92.40
34698;DHT22;61391;50.922;6.928;2023-03-01T14:29:34;10.10;92.40
34698;DHT22;61391;50.922;6.928;2023-03-01T14:32:11;10.30;91.80
34698;DHT22;61391;50.922;6.928;2023-03-01T14:34:43;10.20;91.50
34698;DHT22;61391;50.922;6.928;2023-03-01T14:37:15;9.70;92.80
34698;DHT22;61391;50.922;6.928;2023-03-01T14:39:45;9.80;91.30
34698;DHT22;61391;50.922;6.928;2023-03-01T14:42:12;9.90;91.50
34698;DHT22;61391;50.922;6.928;2023-03-01T14:44:42;10.20;90.90
34698;DHT22;61391;50.922;6.928;2023-03-01T14:47:15;10.20;96.00
34698;DHT22;61391;50.922;6.928;2023-03-01T14:49:45;10.30;91.90
34698;DHT22;61391;50.922;6.928;2023-03-01T14:52:20;10.40;92.90
34698;DHT22;61391;50.922;6.928;2023-03-01T14:54:52;10.20;94.80
34698;DHT22;61391;50.922;6.928;2023-03-01T14:57:24;9.90;95.70
34698;DHT22;61391;50.922;6.928;2023-03-01T14:59:52;9.60;95.10
34698;DHT22;61391;50.922;6.928;2023-03-01T15:02:22;9.30;98.00
34698;DHT22;61391;50.922;6.928;2023-03-01T15:04:52;9.20;99.00
34698;DHT22;61391;50.922;6.928;2023-03-01T15:07:18;8.90;99.90
34698;DHT22;61391;50.922;6.928;2023-03-01T15:09:45;8.80;99.90
34698;DHT22;61391;50.922;6.928;2023-03-01T15:14:56;9.10;99.90
34698;DHT22;61391;50.922;6.928;2023-03-01T15:17:36;8.90;99.90
34698;DHT22;61391;50.922;6.928;2023-03-01T15:20:06;8.90;99.90
34698;DHT22;61391;50.922;6.928;2023-03-01T15:22:32;8.70;99.90
34698;DHT22;61391;50.922;6.928;2023-03-01T15:24:58;8.50;99.90
34698;DHT22;61391;50.922;6.928;2023-03-01T15:27:25;8.40;99.90
34698;DHT22;61391;50.922;6.928;2023-03-01T15:29:55;8.40;99.90
34698;DHT22;61391;50.922;6.928;2023-03-01T15:32:25;8.30;99.90
34698;DHT22;61391;50.922;6.928;2023-03-01T15:34:52;8.30;99.90
34698;DHT22;61391;50.922;6.928;2023-03-01T15:40:49;8.20;99.90
34698;DHT22;61391;50.922;6.928;2023-03-01T15:43:39;8.20;99.90
34698;DHT22;61391;50.922;6.928;2023-03-01T15:46:24;8.10;99.90
34698;DHT22;61391;50.922;6.928;2023-03-01T15:49:51;8.30;99.90
34698;DHT22;61391;50.922;6.928;2023-03-01T15:51:54;8.50;99.90
34698;DHT22;61391;50.922;6.928;2023-03-01T15:54:23;8.50;99.90
34698;DHT22;61391;50.922;6.928;2023-03-01T15:56:52;8.70;99.90
34698;DHT22;61391;50.922;6.928;2023-03-01T15:59:18;8.80;99.90
34698;DHT22;61391;50.922;6.928;2023-03-01T16:01:44;8.60;99.90
34698;DHT22;61391;50.922;6.928;2023-03-01T16:04:12;8.50;99.90
34698;DHT22;61391;50.922;6.928;2023-03-01T16:06:41;8.30;99.90
34698;DHT22;61391;50.922;6.928;2023-03-01T16:09:09;8.40;99.90
34698;DHT22;61391;50.922;6.928;2023-03-01T16:11:55;8.30;99.90
34698;DHT22;61391;50.922;6.928;2023-03-01T16:14:45;8.10;99.90
34698;DHT22;61391;50.922;6.928;2023-03-01T16:17:10;8.30;99.90
34698;DHT22;61391;50.922;6.928;2023-03-01T16:19:39;8.20;99.90
34698;DHT22;61391;50.922;6.928;2023-03-01T16:22:05;8.30;99.90
34698;DHT22;61391;50.922;6.928;2023-03-01T16:24:31;8.30;99.90
34698;DHT22;61391;50.922;6.928;2023-03-01T16:30:21;8.30;99.90
34698;DHT22;61391;50.922;6.928;2023-03-01T16:32:47;8.30;99.90
34698;DHT22;61391;50.922;6.928;2023-03-01T16:35:15;8.40;99.90
34698;DHT22;61391;50.922;6.928;2023-03-01T16:37:41;8.20;99.90
34698;DHT22;61391;50.922;6.928;2023-03-01T16:42:44;8.10;99.90
34698;DHT22;61391;50.922;6.928;2023-03-01T16:45:12;8.00;99.90
34698;DHT22;61391;50.922;6.928;2023-03-01T16:47:38;7.90;99.90
34698;DHT22;61391;50.922;6.928;2023-03-01T16:50:04;7.80;99.90
34698;DHT22;61391;50.922;6.928;2023-03-01T16:52:29;7.90;99.90
34698;DHT22;61391;50.922;6.928;2023-03-01T16:54:55;7.70;99.90
34698;DHT22;61391;50.922;6.928;2023-03-01T16:57:21;7.80;99.90
34698;DHT22;61391;50.922;6.928;2023-03-01T16:59:46;7.90;99.90
34698;DHT22;61391;50.922;6.928;2023-03-01T17:02:13;7.60;99.90
34698;DHT22;61391;50.922;6.928;2023-03-01T17:04:40;7.60;99.90
34698;DHT22;61391;50.922;6.928;2023-03-01T17:07:06;7.60;99.90
34698;DHT22;61391;50.922;6.928;2023-03-01T17:09:36;7.50;99.90
34698;DHT22;61391;50.922;6.928;2023-03-01T17:12:05;7.40;99.90
34698;DHT22;61391;50.922;6.928;2023-03-01T17:14:30;7.30;99.90
34698;DHT22;61391;50.922;6.928;2023-03-01T17:17:09;7.50;99.90
34698;DHT22;61391;50.922;6.928;2023-03-01T17:19:36;7.30;99.90
34698;DHT22;61391;50.922;6.928;2023-03-01T17:25:45;7.10;99.90
34698;DHT22;61391;50.922;6.928;2023-03-01T17:28:21;7.20;99.90
34698;DHT22;61391;50.922;6.928;2023-03-01T17:30:53;7.30;99.90
34698;DHT22;61391;50.922;6.928;2023-03-01T17:33:42;7.20;99.90
34698;DHT22;61391;50.922;6.928;2023-03-01T17:36:16;7.30;99.90
34698;DHT22;61391;50.922;6.928;2023-03-01T17:38:42;7.20;99.90
34698;DHT22;61391;50.922;6.928;2023-03-01T17:41:10;7.20;99.90
34698;DHT22;61391;50.922;6.928;2023-03-01T17:43:38;7.10;99.90
34698;DHT22;61391;50.922;6.928;2023-03-01T17:46:05;7.00;99.90
34698;DHT22;61391;50.922;6.928;2023-03-01T17:48:30;7.00;99.90
34698;DHT22;61391;50.922;6.928;2023-03-01T17:50:56;7.10;99.90
34698;DHT22;61391;50.922;6.928;2023-03-01T17:53:21;6.90;99.90
34698;DHT22;61391;50.922;6.928;2023-03-01T17:55:47;6.80;99.90
34698;DHT22;61391;50.922;6.928;2023-03-01T17:58:19;6.80;99.90
34698;DHT22;61391;50.922;6.928;2023-03-01T18:00:48;6.80;99.90
34698;DHT22;61391;50.922;6.928;2023-03-01T18:03:14;6.90;99.90
34698;DHT22;61391;50.922;6.928;2023-03-01T18:05:43;7.00;99.90
34698;DHT22;61391;50.922;6.928;2023-03-01T18:08:08;6.90;99.90
34698;DHT22;61391;50.922;6.928;2023-03-01T18:10:34;6.90;99.90
34698;DHT22;61391;50.922;6.928;2023-03-01T18:13:03;6.80;99.90
34698;DHT22;61391;50.922;6.928;2023-03-01T18:15:29;6.80;99.90
34698;DHT22;61391;50.922;6.928;2023-03-01T18:17:56;6.60;99.90
34698;DHT22;61391;50.922;6.928;2023-03-01T18:20:23;6.50;99.90
34698;DHT22;61391;50.922;6.928;2023-03-01T18:22:58;6.50;99.90
34698;DHT22;61391;50.922;6.928;2023-03-01T18:25:25;6.40;99.90
34698;DHT22;61391;50.922;6.928;2023-03-01T18:27:51;6.50;99.90
34698;DHT22;61391;50.922;6.928;2023-03-01T18:30:21;6.50;99.90
34698;DHT22;61391;50.922;6.928;2023-03-01T18:42:53;6.20;99.90
34698;DHT22;61391;50.922;6.928;2023-03-01T18:45:22;6.20;99.90
34698;DHT22;61391;50.922;6.928;2023-03-01T18:47:49;6.20;99.90
34698;DHT22;61391;50.922;6.928;2023-03-01T18:50:16;6.40;99.90
34698;DHT22;61391;50.922;6.928;2023-03-01T18:56:07;6.20;99.90